Time,TemperatureF,DewpointF,PressureIn,WindDirection,WindDirectionDegrees,WindSpeedMPH,WindSpeedGustMPH,Humidity,HourlyPrecipIn,Conditions,Clouds,dailyrainin,SolarRadiationWatts/m^2,SoftwareType,DateUTC
2013-03-05 01:00:00,8.0,5.0,30.24,NW,319,14.0,-999.0,89,-99.99,,,-99.99,0.050000,,2013-03-05 08:00:00,
2013-03-05 01:52:00,8.0,5.0,30.24,NW,319,14.0,-999.0,89,-99.99,,,-99.99,0.050000,,2013-03-05 08:52:00,
2013-03-05 02:00:00,5.0,2.0,30.26,NW,324,7.0,-999.0,88,-99.99,,,-99.99,0.040000,,2013-03-05 09:00:00,
2013-03-05 02:52:00,5.0,2.0,30.26,NW,324,7.0,-999.0,88,-99.99,,,-99.99,0.040000,,2013-03-05 09:52:00,
2013-03-05 03:00:00,2.0,0.0,30.24,WNW,288,6.0,-999.0,89,-99.99,,,-99.99,0.040000,,2013-03-05 10:00:00,
2013-03-05 03:52:00,2.0,0.0,30.24,WNW,288,6.0,-999.0,89,-99.99,,,-99.99,0.040000,,2013-03-05 10:52:00,
2013-03-05 04:00:00,3.0,0.0,30.24,West,261,7.0,-999.0,89,-99.99,,,-99.99,0.050000,,2013-03-05 11:00:00,
2013-03-05 04:52:00,3.0,0.0,30.24,West,261,7.0,-999.0,89,-99.99,,,-99.99,0.050000,,2013-03-05 11:52:00,
2013-03-05 05:00:00,0.0,-2.0,30.26,WSW,256,7.0,-999.0,89,-99.99,,,-99.99,0.050000,,2013-03-05 12:00:00,
2013-03-05 05:53:00,0.0,-2.0,30.26,WSW,256,7.0,-999.0,89,-99.99,,,-99.99,0.050000,,2013-03-05 12:53:00,
2013-03-05 06:00:00,3.0,0.0,30.26,West,274,6.0,-999.0,89,-99.99,,,-99.99,0.070000,,2013-03-05 13:00:00,
2013-03-05 06:52:00,3.0,0.0,30.26,West,274,6.0,-999.0,89,-99.99,,,-99.99,0.070000,,2013-03-05 13:52:00,
2013-03-05 07:00:00,2.0,-1.0,30.27,West,259,5.0,-999.0,88,-99.99,,,-99.99,8.460000,,2013-03-05 14:00:00,
2013-03-05 07:52:00,2.0,-1.0,30.27,West,259,5.0,-999.0,88,-99.99,,,-99.99,8.460000,,2013-03-05 14:52:00,
2013-03-05 08:00:00,4.0,1.0,30.26,West,265,2.0,-999.0,88,-99.99,,,-99.99,112.699997,,2013-03-05 15:00:00,
2013-03-05 08:52:00,4.0,1.0,30.26,West,265,2.0,-999.0,88,-99.99,,,-99.99,112.699997,,2013-03-05 15:52:00,
2013-03-05 09:00:00,6.0,3.0,30.27,WNW,286,3.0,-999.0,86,-99.99,,,-99.99,249.000000,,2013-03-05 16:00:00,
2013-03-05 09:52:00,6.0,3.0,30.27,WNW,286,3.0,-999.0,86,-99.99,,,-99.99,249.000000,,2013-03-05 16:52:00,
2013-03-05 10:00:00,12.0,8.0,30.28,SW,235,3.0,-999.0,84,-99.99,,,-99.99,369.700012,,2013-03-05 17:00:00,
2013-03-05 10:52:00,12.0,8.0,30.28,SW,235,3.0,-999.0,84,-99.99,,,-99.99,369.700012,,2013-03-05 17:52:00,
2013-03-05 11:00:00,14.0,8.0,30.26,SSE,168,4.0,-999.0,77,-99.99,,,-99.99,487.500000,,2013-03-05 18:00:00,
2013-03-05 11:53:00,14.0,8.0,30.26,SSE,168,4.0,-999.0,77,-99.99,,,-99.99,487.500000,,2013-03-05 18:53:00,
2013-03-05 12:00:00,14.0,8.0,30.26,SSE,164,5.0,-999.0,76,-99.99,,,-99.99,565.900024,,2013-03-05 19:00:00,
2013-03-05 12:52:00,14.0,8.0,30.26,SSE,164,5.0,-999.0,76,-99.99,,,-99.99,565.900024,,2013-03-05 19:52:00,
2013-03-05 13:00:00,16.0,11.0,30.24,SSE,162,6.0,-999.0,80,-99.99,,,-99.99,565.200012,,2013-03-05 20:00:00,
2013-03-05 13:52:00,16.0,11.0,30.24,SSE,162,6.0,-999.0,80,-99.99,,,-99.99,565.200012,,2013-03-05 20:52:00,
2013-03-05 14:00:00,16.0,11.0,30.22,SSE,158,6.0,-999.0,79,-99.99,,,-99.99,512.200012,,2013-03-05 21:00:00,
2013-03-05 14:52:00,16.0,11.0,30.22,SSE,158,6.0,-999.0,79,-99.99,,,-99.99,512.200012,,2013-03-05 21:52:00,
2013-03-05 15:00:00,17.0,12.0,30.21,SSE,150,8.0,-999.0,81,-99.99,,,-99.99,406.899994,,2013-03-05 22:00:00,
2013-03-05 15:52:00,17.0,12.0,30.21,SSE,150,8.0,-999.0,81,-99.99,,,-99.99,406.899994,,2013-03-05 22:52:00,
2013-03-05 16:00:00,16.0,12.0,30.20,SSE,154,8.0,-999.0,84,-99.99,,,-99.99,321.600006,,2013-03-05 23:00:00,
2013-03-05 16:53:00,16.0,12.0,30.20,SSE,154,8.0,-999.0,84,-99.99,,,-99.99,321.600006,,2013-03-05 23:53:00,
2013-03-05 17:00:00,14.0,11.0,30.18,SE,135,7.0,-999.0,86,-99.99,,,-99.99,123.699997,,2013-03-06 00:00:00,
2013-03-05 17:52:00,14.0,11.0,30.18,SE,135,7.0,-999.0,86,-99.99,,,-99.99,123.699997,,2013-03-06 00:52:00,
2013-03-05 18:00:00,11.0,9.0,30.17,SE,128,6.0,-999.0,89,-99.99,,,-99.99,23.510000,,2013-03-06 01:00:00,
2013-03-05 18:52:00,11.0,9.0,30.17,SE,128,6.0,-999.0,89,-99.99,,,-99.99,23.510000,,2013-03-06 01:52:00,
2013-03-05 19:00:00,11.0,9.0,30.17,SE,139,5.0,-999.0,91,-99.99,,,-99.99,0.150000,,2013-03-06 02:00:00,
2013-03-05 19:52:00,11.0,9.0,30.17,SE,139,5.0,-999.0,91,-99.99,,,-99.99,0.150000,,2013-03-06 02:52:00,
2013-03-05 20:00:00,11.0,9.0,30.16,SE,131,3.0,-999.0,93,-99.99,,,-99.99,0.030000,,2013-03-06 03:00:00,
2013-03-05 20:52:00,11.0,9.0,30.16,SE,131,3.0,-999.0,93,-99.99,,,-99.99,0.030000,,2013-03-06 03:52:00,
2013-03-05 21:00:00,10.0,9.0,30.15,ESE,122,2.0,-999.0,93,-99.99,,,-99.99,0.030000,,2013-03-06 04:00:00,
2013-03-05 21:52:00,10.0,9.0,30.15,ESE,122,2.0,-999.0,93,-99.99,,,-99.99,0.030000,,2013-03-06 04:52:00,